Tiempo atmosférico en la estación meteorológica de Castejon De Valdejasa, Zaragoza (442 m.)



Fecha
DESCASC
Temp. máxima en grados centígrados (hora)
DESCASC
Temp. mínima en grados centígrados (hora)
DESCASC
Temp. media en grados centígrados
DESCASC
Racha de viento máxima en m/sg (hora)
DESCASC
Velocidad máxima media en intervalos de 10 minutos(hora)
DESCASC
Precipitaciones diarias en mm
DESCASC
Precipitaciones de 00:00 a 06:00 en mm
DESCASC
Precipitaciones de 06:00 a 12:00 en mm
DESCASC
Precipitaciones de 12:00 a 18:00 en mm
DESCASC
Precipitaciones de 18:00 a 24:00 en mm
DESCASC
18-02-2018 11.3 (14:40) 1.4 (07:30) 6.4 14.72 (14:50) 9.72 (14:30) 0 0 0 0 0
17-02-2018 11.8 (15:00) 4 (23:40) 7.9 16.39 (15:40) 10 (14:00) 0 0 0 0 0
16-02-2018 16.6 (13:30) 7.5 (05:20) 12.1 5 (20:40) 3.61 (14:40) 0 0 0 0 0
15-02-2018 16.9 (15:30) 5.9 (00:00) 11.4 7.22 (14:50) 4.72 (11:40) 0 0 0 0 0
14-02-2018 10.7 (14:00) 1.8 (00:00) 6.2 5.56 (13:00) 3.89 (13:20) 0.4 0 0 0.4 0
13-02-2018 4.8 (16:50) -3.1 (-00:0) 0.9 10.28 (14:10) 7.78 (14:20) 0 0 0 0 0
12-02-2018 7.6 (14:20) -1.2 (-00:0) 3.2 15 (09:30) 9.17 (14:50) 0 0 0 0 0
11-02-2018 13 (15:30) 3.2 (00:00) 8.1 11.67 (13:20) 8.06 (13:10) 0.2 0 0 0.2 0
10-02-2018 7.5 (16:00) 0.5 (00:00) 4 15 (15:20) 9.72 (20:20) 0 0 0 0 0
09-02-2018 5.5 (16:00) -3.8 (-00:0) 0.9 13.33 (16:50) 8.61 (13:20) 0 0 0 0 0
08-02-2018 5 (14:40) -2 (-00:0) 1.5 15.56 (16:20) 9.72 (16:20) 0 0 0 0 0
07-02-2018 5.1 (15:00) -1.2 (-00:0) 1.9 16.11 (15:30) 9.17 (11:30) 0 0 0 0 0
06-02-2018 3.4 (15:20) 0 (00:00) 1.7 13.61 (11:00) 8.06 (11:20) 0.2 0 0.2 0 0
05-02-2018 2.8 (17:10) 0.3 (00:00) 1.5 4.72 (21:30) 3.33 (21:20) 10.6 0.4 4 5 1.2
04-02-2018 4 (00:00) 0.8 (00:00) 2.4 9.44 (03:50) 5.83 (02:10) 5.8 0 0.2 3.2 2.4
03-02-2018 6.8 (16:30) 0 (00:00) 3.4 14.44 (12:20) 9.17 (14:10) 0.4 0 0 0.4 0
02-02-2018 7.1 (15:20) 0 (00:00) 3.5 15.56 (13:30) 9.17 (11:20) 0 0 0 0 0
01-02-2018 7.7 (14:00) 1.4 (00:00) 4.5 13.89 (13:50) 8.06 (13:50) 0 0 0 0 0
31-01-2018 12.5 (16:00) 1.6 (00:00) 7.1 5.28 (14:40) 4.17 (14:40) 0 0 0 0 0
30-01-2018 13.7 (15:30) 1.7 (00:00) 7.7 4.44 (22:20) 3.89 (22:10) 0 0 0 0 0
29-01-2018 11.9 (16:40) 2 (00:00) 6.9 5.83 (14:30) 4.17 (11:30) 0 0 0 0 0
28-01-2018 11.3 (16:40) -0.5 (-00:0) 5.4 6.11 (13:00) 4.44 (13:00) 0 0 0 0 0
27-01-2018 9.9 (15:10) 1 (00:00) 5.4 12.22 (01:00) 7.5 (00:40) 0 0 0 0 0
26-01-2018 7.8 (15:20) 3.1 (00:00) 5.5 16.67 (15:50) 9.17 (17:50) 0.2 0.2 0 0 0
25-01-2018 8.9 (00:00) 4.1 (00:00) 6.5 9.72 (22:40) 6.67 (13:20) 5.6 0 0 2.6 3
24-01-2018 15.7 (14:40) 5 (00:00) 10.3 9.17 (12:30) 6.67 (12:30) 0 0 0 0 0
23-01-2018 15.2 (16:00) 7.3 (00:00) 11.3 11.67 (17:00) 7.78 (16:10) 0 0 0 0 0
22-01-2018 13.5 (15:30) 8.1 (00:00) 10.8 15.83 (13:10) 10.28 (13:00) 0 0 0 0 0

Gráficas

Temp. máximas Temp. mínimas Temp. medias Precipitaciones Rachas de viento máximas Velocidades máximas media en intervalos de 10 minutos

Datos horarios

Fecha y hora oficial Temperatura (ºC) Velocidad del viento (km/h) Dirección del viento Racha (km/h) Dirección de racha Precipitación (mm) Presión (hPa) Tendencia (hPa) Humedad (%)
2018-02-20 23:00:00 6 26 Oeste 46 Oeste 0 -- -- 82
2018-02-20 22:00:00 5.8 29 Oeste 59 Oeste 0 -- -- 81
2018-02-20 21:00:00 6.4 27 Oeste 48 Oeste 0 -- -- 79
2018-02-20 20:00:00 6.9 27 Oeste 51 Oeste 0 -- -- 78
2018-02-20 19:00:00 7.6 31 Noroeste 57 Noroeste 0 -- -- 73
2018-02-20 18:00:00 8.9 30 Noroeste 54 Oeste 0 -- -- 67
2018-02-20 17:00:00 10.1 35 Noroeste 58 Noroeste 0 -- -- 63
2018-02-20 16:00:00 11.1 38 Noroeste 62 Noroeste 0 -- -- 62
2018-02-20 15:00:00 11 38 Noroeste 58 Noroeste 0 -- -- 62
2018-02-20 14:00:00 10.4 37 Noroeste 64 Noroeste 0 -- -- 66
2018-02-20 13:00:00 10.1 29 Noroeste 56 Noroeste 0 -- -- 68
2018-02-20 12:00:00 9.8 26 Noroeste 61 Noroeste 0 -- -- 71
2018-02-20 11:00:00 9.3 32 Noroeste 53 Noroeste 0 -- -- 73
2018-02-20 10:00:00 8.8 23 Noroeste 45 Noroeste 0 -- -- 81
2018-02-20 09:00:00 7.9 30 Oeste 48 Oeste 0 -- -- 85
2018-02-20 08:00:00 7.7 26 Oeste 48 Oeste 0 -- -- 85
2018-02-20 07:00:00 8.1 25 Oeste 45 Oeste 0 -- -- 86
2018-02-20 06:00:00 8.1 26 Oeste 45 Oeste 0 -- -- 89
2018-02-20 05:00:00 8.2 26 Oeste 42 Oeste 0 -- -- 88
2018-02-20 04:00:00 8.1 26 Oeste 46 Oeste 0 -- -- 89
2018-02-20 03:00:00 7.7 26 Oeste 42 Oeste 0 -- -- 90
2018-02-20 02:00:00 7.6 25 Oeste 43 Oeste 0 -- -- 90
2018-02-20 01:00:00 7.1 24 Oeste 38 Noroeste 0 -- -- 90
2018-02-20 00:00:00 7.7 23 Oeste 41 Oeste 0 -- -- 88
2018-02-19 23:00:00 8.2 27 Oeste 43 Oeste 0 -- -- 87
2018-02-19 22:00:00 8.6 29 Oeste 45 Oeste 0 -- -- 85
2018-02-19 21:00:00 9 26 Oeste 47 Oeste 0 -- -- 83
2018-02-19 20:00:00 9.3 24 Oeste 37 Oeste 0 -- -- 81
2018-02-19 19:00:00 9.9 18 Noroeste 39 Oeste 0 -- -- 78
2018-02-19 18:00:00 10.8 25 Oeste 41 Oeste 0 -- -- 73
2018-02-19 17:00:00 12 22 Noroeste 44 Oeste 0 -- -- 68
2018-02-19 16:00:00 11.9 27 Oeste 47 Noroeste 0 -- -- 70
2018-02-19 15:00:00 12.1 22 Noroeste 44 Oeste 0 -- -- 69
2018-02-19 14:00:00 10.7 29 Oeste 45 Oeste 0 -- -- 75
2018-02-19 13:00:00 10.7 29 Oeste 46 Oeste 0 -- -- 74
2018-02-19 12:00:00 9.5 24 Oeste 42 Noroeste 0 -- -- 78
2018-02-19 11:00:00 8.6 27 Oeste 46 Oeste 0 -- -- 80
2018-02-19 10:00:00 8.5 27 Oeste 41 Oeste 0 -- -- 82
2018-02-19 09:00:00 7 25 Noroeste 40 Noroeste 0 -- -- 85
2018-02-19 08:00:00 6.6 18 Oeste 34 Oeste 0 -- -- 87
2018-02-19 07:00:00 6.4 19 Oeste 34 Oeste 0 -- -- 86
2018-02-19 06:00:00 6.3 22 Oeste 37 Oeste 0 -- -- 88
2018-02-19 05:00:00 6.2 20 Oeste 32 Noroeste 0 -- -- 88
2018-02-19 04:00:00 6.3 18 Oeste 29 Oeste 0 -- -- 86
2018-02-19 03:00:00 6.2 20 Oeste 35 Oeste 0 -- -- 85
2018-02-19 02:00:00 7 21 Noroeste 39 Noroeste 0 -- -- 80
2018-02-19 01:00:00 6 16 Oeste 31 Noroeste 0 -- -- 84
2018-02-19 00:00:00 6.9 19 Oeste 36 Oeste 0 -- -- 82
2018-02-18 23:00:00 7 22 Oeste 41 Oeste 0 -- -- 83
2018-02-18 22:00:00 7.5 23 Noroeste 36 Oeste 0 -- -- 81
2018-02-18 21:00:00 7.8 17 Noroeste 42 Oeste 0 -- -- 80
2018-02-18 20:00:00 8.1 19 Oeste 35 Oeste 0 -- -- 78
2018-02-18 19:00:00 8.4 13 Noroeste 31 Noroeste 0 -- -- 77
2018-02-18 18:00:00 9.1 21 Noroeste 37 Oeste 0 -- -- 73
2018-02-18 17:00:00 10.1 20 Noroeste 46 Noroeste 0 -- -- 68
2018-02-18 16:00:00 9.3 23 Noroeste 46 Oeste 0 -- -- 69
2018-02-18 15:00:00 10.4 32 Oeste 53 Oeste 0 -- -- 66
2018-02-18 14:00:00 10.9 21 Oeste 47 Oeste 0 -- -- 54
2018-02-18 13:00:00 9.9 27 Oeste 48 Oeste 0 -- -- 56
2018-02-18 12:00:00 9.6 18 Noroeste 44 Noroeste 0 -- -- 56
2018-02-18 11:00:00 7.4 19 Noroeste 33 Oeste 0 -- -- 65
2018-02-18 10:00:00 4.8 18 Oeste 39 Oeste 0 -- -- 84
2018-02-18 09:00:00 2.4 16 Oeste 24 Oeste 0 -- -- 93
2018-02-18 08:00:00 1.6 15 Oeste 24 Oeste 0 -- -- 92
2018-02-18 07:00:00 1.8 14 Oeste 23 Oeste 0 -- -- 91
2018-02-18 06:00:00 2.2 15 Oeste 23 Oeste 0 -- -- 92
2018-02-18 05:00:00 2.2 15 Oeste 26 Oeste 0 -- -- 91
2018-02-18 04:00:00 2.8 18 Oeste 31 Oeste 0 -- -- 89
2018-02-18 03:00:00 2.9 17 Oeste 41 Oeste 0 -- -- 89
2018-02-18 02:00:00 3.6 22 Oeste 35 Oeste 0 -- -- 87
2018-02-18 01:00:00 3.7 24 Oeste 41 Oeste 0 -- -- 85
2018-02-18 00:00:00 4.1 26 Oeste 40 Noroeste 0 -- -- 85
2018-02-17 23:00:00 4.4 24 Oeste 39 Oeste 0 -- -- 84
2018-02-17 22:00:00 4.8 24 Oeste 46 Oeste 0 -- -- 81
2018-02-17 21:00:00 5.3 24 Oeste 46 Oeste 0 -- -- 77
2018-02-17 20:00:00 6.4 28 Oeste 50 Oeste 0 -- -- 70
2018-02-17 19:00:00 7.4 26 Oeste 50 Oeste 0 -- -- 64
2018-02-17 18:00:00 9.4 26 Noroeste 50 Noroeste 0 -- -- 59
2018-02-17 17:00:00 11 26 Noroeste 53 Oeste 0 -- -- 51
2018-02-17 16:00:00 11 26 Noroeste 59 Oeste 0 -- -- 58
2018-02-17 15:00:00 11.8 23 Noroeste 56 Oeste 0 -- -- 57
2018-02-17 14:00:00 10.8 36 Oeste 59 Oeste 0 -- -- 64
2018-02-17 13:00:00 9.6 34 Oeste 53 Oeste 0 -- -- 68
2018-02-17 12:00:00 9 30 Oeste 52 Oeste 0 -- -- 70
2018-02-17 11:00:00 9.3 26 Noroeste 51 Noroeste 0 -- -- 70
2018-02-17 10:00:00 9.6 27 Noroeste 41 Noroeste 0 -- -- 76
2018-02-17 09:00:00 8.2 10 Oeste 19 Oeste 0 -- -- 89
2018-02-17 08:00:00 9.1 11 Oeste 25 Oeste 0 -- -- 92
2018-02-17 07:00:00 8.2 8 Oeste 12 Oeste 0 -- -- 95
2018-02-17 06:00:00 8.4 2 Oeste 10 Oeste 0 -- -- 94
2018-02-17 05:00:00 8.7 8 Oeste 12 Oeste 0 -- -- 93
2018-02-17 04:00:00 10.1 5 Oeste 10 Nordeste 0 -- -- 89
2018-02-17 03:00:00 10.2 9 Nordeste 13 Nordeste 0 -- -- 89
2018-02-17 02:00:00 10.1 10 Nordeste 15 Este 0 -- -- 91
2018-02-17 01:00:00 10.5 11 Este 15 Este 0 -- -- 90
2018-02-17 00:00:00 9.4 10 Nordeste 13 Nordeste 0 -- -- 88
2018-02-16 23:00:00 10.7 8 Nordeste 16 Nordeste 0 -- -- 88
2018-02-16 22:00:00 10.8 12 Este 17 Este 0 -- -- 87
2018-02-16 21:00:00 11 10 Este 18 Nordeste 0 -- -- 85
2018-02-16 20:00:00 11.6 11 Nordeste 15 Este 0 -- -- 83
2018-02-16 19:00:00 12.4 7 Este 12 Este 0 -- -- 76
2018-02-16 18:00:00 14.3 7 Este 17 Este 0 -- -- 71
2018-02-16 17:00:00 15.9 10 Este 18 Este 0 -- -- 64
2018-02-16 16:00:00 16.5 7 Este 16 Sudeste 0 -- -- 62
2018-02-16 15:00:00 15.3 9 Oeste 17 Oeste 0 -- -- 70
2018-02-16 14:00:00 15.3 5 Oeste 17 Sudeste 0 -- -- 69
2018-02-16 13:00:00 15.3 8 Sudoeste 15 Sudoeste 0 -- -- 69
2018-02-16 12:00:00 14.9 10 Oeste 15 Oeste 0 -- -- 69
2018-02-16 11:00:00 11.7 2 Sudeste 7 Sudoeste 0 -- -- 85
2018-02-16 10:00:00 9.6 0 Calma 10 Este 0 -- -- 89
2018-02-16 09:00:00 9.7 8 Nordeste 12 Nordeste 0 -- -- 88
2018-02-16 08:00:00 7.9 11 Nordeste 12 Nordeste 0 -- -- 89
2018-02-16 07:00:00 8.6 6 Nordeste 12 Nordeste 0 -- -- 91
2018-02-16 06:00:00 8.3 8 Nordeste 12 Nordeste 0 -- -- 91
2018-02-16 05:00:00 8.6 8 Nordeste 14 Nordeste 0 -- -- 85
2018-02-16 04:00:00 8 12 Nordeste 14 Nordeste 0 -- -- 87
2018-02-16 03:00:00 8.9 9 Nordeste 12 Nordeste 0 -- -- 88
2018-02-16 02:00:00 8.1 9 Nordeste 11 Nordeste 0 -- -- 86
2018-02-16 01:00:00 9.4 9 Nordeste 12 Nordeste 0 -- -- 87
2018-02-16 00:00:00 10 7 Nordeste 13 Nordeste 0 -- -- 83
2018-02-15 23:00:00 11.2 0 Calma 6 Este 0 -- -- 78
2018-02-15 22:00:00 11.7 2 Nordeste 6 Oeste 0 -- -- 75
2018-02-15 21:00:00 12.9 6 Nordeste 20 Noroeste 0 -- -- 70
2018-02-15 20:00:00 12.4 4 Este 6 Norte 0 -- -- 76
2018-02-15 19:00:00 13.5 3 Noroeste 9 Oeste 0 -- -- 72
2018-02-15 18:00:00 14.5 7 Oeste 16 Oeste 0 -- -- 67
2018-02-15 17:00:00 15.4 12 Oeste 21 Oeste 0 -- -- 66
2018-02-15 16:00:00 16.3 9 Noroeste 24 Noroeste 0 -- -- 61
2018-02-15 15:00:00 16.7 13 Oeste 26 Oeste 0 -- -- 59
2018-02-15 14:00:00 16 11 Oeste 22 Sudoeste 0 -- -- 61
2018-02-15 13:00:00 15.2 14 Oeste 25 Noroeste 0 -- -- 64
2018-02-15 12:00:00 14.5 13 Oeste 24 Oeste 0 -- -- 67
2018-02-15 11:00:00 11.9 8 Sudoeste 14 Oeste 0 -- -- 83
2018-02-15 10:00:00 9.3 7 Oeste 9 Oeste 0 -- -- 89
2018-02-15 09:00:00 7.6 0 Calma 15 Noroeste 0 -- -- 91
2018-02-15 08:00:00 8.4 4 Oeste 22 Noroeste 0 -- -- 86
2018-02-15 07:00:00 8.7 10 Noroeste 21 Noroeste 0 -- -- 88
2018-02-15 06:00:00 6.8 4 Este 8 Oeste 0 -- -- 91
2018-02-15 05:00:00 7.6 0 Calma 6 Noroeste 0 -- -- 89
2018-02-15 04:00:00 8 3 Norte 10 Noroeste 0 -- -- 89
2018-02-15 03:00:00 8.3 2 Oeste 25 Noroeste 0 -- -- 86
2018-02-15 02:00:00 8.8 12 Noroeste 20 Noroeste 0 -- -- 87
2018-02-15 01:00:00 7.5 6 Noroeste 13 Noroeste 0 -- -- 92
2018-02-15 00:00:00 7.4 0 Calma 4 Noroeste 0 -- -- 87
2018-02-14 23:00:00 7.3 0 Calma 6 Este 0 -- -- 91
2018-02-14 22:00:00 6.8 0 Calma 10 Este 0 -- -- 92
2018-02-14 21:00:00 7.6 3 Norte 9 Norte 0 -- -- 90
2018-02-14 20:00:00 7.7 6 Nordeste 9 Norte 0 -- -- 91
2018-02-14 19:00:00 8.2 6 Nordeste 7 Nordeste 0 -- -- 89
2018-02-14 18:00:00 8.7 0 Calma 8 Oeste 0.2 -- -- 87
2018-02-14 17:00:00 9.1 5 Oeste 8 Oeste 0.2 -- -- 83
2018-02-14 16:00:00 9.7 5 Oeste 11 Oeste 0 -- -- 79
2018-02-14 15:00:00 10.2 7 Noroeste 18 Oeste 0 -- -- 74
2018-02-14 14:00:00 10.7 14 Oeste 20 Oeste 0 -- -- 67
2018-02-14 13:00:00 10 14 Oeste 20 Oeste 0 -- -- 68
2018-02-14 12:00:00 9.1 11 Oeste 14 Sudoeste 0 -- -- 73
2018-02-14 11:00:00 7.5 7 Oeste 12 Sudoeste 0 -- -- 79
2018-02-14 10:00:00 5 0 Calma 8 Este 0 -- -- 91
2018-02-14 09:00:00 2.1 8 Este 10 Este 0 -- -- 91
2018-02-14 08:00:00 2.4 0 Calma 5 Nordeste 0 -- -- 89
2018-02-14 07:00:00 2.7 0 Calma 7 Noroeste 0 -- -- 86
2018-02-14 06:00:00 3.3 0 Calma 8 Oeste 0 -- -- 85
2018-02-14 05:00:00 3.1 2 Oeste 5 Oeste 0 -- -- 84
2018-02-14 04:00:00 3.1 6 Oeste 11 Oeste 0 -- -- 82
2018-02-14 03:00:00 3 9 Oeste 12 Oeste 0 -- -- 81
2018-02-14 02:00:00 3.1 9 Noroeste 12 Oeste 0 -- -- 79
2018-02-14 01:00:00 3.2 8 Noroeste 10 Noroeste 0 -- -- 79
2018-02-14 00:00:00 3.2 4 Noroeste 8 Oeste 0 -- -- 78
2018-02-13 23:00:00 3.3 7 Oeste 14 Oeste 0 -- -- 73
2018-02-13 22:00:00 3.3 11 Oeste 14 Oeste 0 -- -- 72
2018-02-13 21:00:00 3.5 9 Oeste 11 Noroeste 0 -- -- 69
2018-02-13 20:00:00 3.5 3 Noroeste 7 Oeste 0 -- -- 70
2018-02-13 19:00:00 3.9 4 Oeste 8 Noroeste 0 -- -- 68
2018-02-13 18:00:00 4.5 6 Oeste 21 Oeste 0 -- -- 66
2018-02-13 17:00:00 4.8 15 Oeste 26 Oeste 0 -- -- 65
2018-02-13 16:00:00 4.5 20 Oeste 33 Oeste 0 -- -- 68
2018-02-13 15:00:00 4.5 26 Oeste 37 Oeste 0 -- -- 66
2018-02-13 14:00:00 4.3 22 Oeste 31 Oeste 0 -- -- 65
2018-02-13 13:00:00 3.8 4 Este 7 Oeste 0 -- -- 63
2018-02-13 12:00:00 3.5 3 Sur 13 Sudeste 0 -- -- 64
2018-02-13 11:00:00 2.7 10 Este 15 Este 0 -- -- 69
2018-02-13 10:00:00 2.2 9 Oeste 17 Noroeste 0 -- -- 67
2018-02-13 09:00:00 0.8 10 Nordeste 18 Este 0 -- -- 74
2018-02-13 08:00:00 -0.9 11 Nordeste 17 Este 0 -- -- 78
2018-02-13 07:00:00 -2.4 12 Nordeste 14 Nordeste 0 -- -- 88
2018-02-13 06:00:00 -2.2 9 Nordeste 12 Nordeste 0 -- -- 84
2018-02-13 05:00:00 -1.4 5 Este 8 Este 0 -- -- 84
2018-02-13 04:00:00 -1.6 4 Este 5 Este 0 -- -- 85
2018-02-13 03:00:00 -1.6 2 Sudeste 10 Oeste 0 -- -- 86
2018-02-13 02:00:00 -1.7 10 Oeste 22 Oeste 0 -- -- 86
2018-02-13 01:00:00 -0.2 16 Oeste 28 Oeste 0 -- -- 82
2018-02-13 00:00:00 -0.9 12 Oeste 25 Noroeste 0 -- -- 85
2018-02-12 23:00:00 0.9 17 Oeste 31 Noroeste 0 -- -- 74
2018-02-12 22:00:00 1.4 14 Noroeste 36 Noroeste 0 -- -- 67
2018-02-12 21:00:00 2.2 22 Noroeste 40 Noroeste 0 -- -- 60
2018-02-12 20:00:00 2.9 25 Noroeste 38 Noroeste 0 -- -- 58
2018-02-12 19:00:00 3.7 20 Noroeste 44 Oeste 0 -- -- 49
2018-02-12 18:00:00 5.5 19 Noroeste 48 Oeste 0 -- -- 42
2018-02-12 17:00:00 6.4 25 Noroeste 54 Oeste 0 -- -- 42
2018-02-12 16:00:00 7.2 30 Oeste 53 Oeste 0 -- -- 41
2018-02-12 15:00:00 7.6 23 Oeste 54 Oeste 0 -- -- 42
2018-02-12 14:00:00 7.2 29 Noroeste 51 Noroeste 0 -- -- 43
2018-02-12 13:00:00 7.1 22 Noroeste 49 Oeste 0 -- -- 55
2018-02-12 12:00:00 6 26 Oeste 45 Noroeste 0 -- -- 67
2018-02-12 11:00:00 4.3 23 Noroeste 45 Oeste 0 -- -- 74
2018-02-12 10:00:00 2.4 23 Oeste 54 Oeste 0 -- -- 83
2018-02-12 09:00:00 2.6 26 Oeste 45 Noroeste 0 -- -- 81
2018-02-12 08:00:00 2.7 25 Noroeste 45 Oeste 0 -- -- 85
2018-02-12 07:00:00 3.6 23 Noroeste 39 Oeste 0 -- -- 79
2018-02-12 06:00:00 3.5 20 Oeste 43 Oeste 0 -- -- 84
2018-02-12 05:00:00 4.2 26 Oeste 43 Oeste 0 -- -- 82
2018-02-12 04:00:00 4.8 26 Noroeste 44 Oeste 0 -- -- 85
2018-02-12 03:00:00 5.2 27 Noroeste 48 Noroeste 0 -- -- 82
2018-02-12 02:00:00 5.7 24 Noroeste 40 Oeste 0 -- -- 82
2018-02-12 01:00:00 6 21 Oeste 34 Oeste 0 -- -- 86
2018-02-12 00:00:00 6.7 21 Noroeste 33 Noroeste 0 -- -- 83
2018-02-11 23:00:00 6.9 18 Oeste 28 Oeste 0 -- -- 87
2018-02-11 22:00:00 7.8 14 Noroeste 36 Noroeste 0 -- -- 83
2018-02-11 21:00:00 8.5 18 Noroeste 33 Oeste 0 -- -- 85
2018-02-11 20:00:00 9.1 15 Oeste 28 Noroeste 0 -- -- 81
2018-02-11 19:00:00 9.7 20 Noroeste 38 Noroeste 0 -- -- 78
2018-02-11 18:00:00 9.7 23 Noroeste 35 Noroeste 0.2 -- -- 79
2018-02-11 17:00:00 11.4 19 Noroeste 41 Oeste 0 -- -- 70
2018-02-11 16:00:00 12.7 18 Oeste 37 Oeste 0 -- -- 67
2018-02-11 15:00:00 11.8 21 Oeste 36 Oeste 0 -- -- 69
2018-02-11 14:00:00 11.7 24 Oeste 42 Oeste 0 -- -- 70
2018-02-11 13:00:00 10.3 25 Oeste 41 Oeste 0 -- -- 75
2018-02-11 12:00:00 8.7 18 Oeste 33 Oeste 0 -- -- 80
2018-02-11 11:00:00 8 24 Oeste 38 Oeste 0 -- -- 81
2018-02-11 10:00:00 6.1 18 Oeste 26 Oeste 0 -- -- 93
2018-02-11 09:00:00 4.2 15 Oeste 22 Oeste 0 -- -- 95
2018-02-11 08:00:00 3.6 15 Oeste 19 Oeste 0 -- -- 94
2018-02-11 07:00:00 4 12 Oeste 27 Noroeste 0 -- -- 92
2018-02-11 06:00:00 4.9 13 Noroeste 28 Noroeste 0 -- -- 90
2018-02-11 05:00:00 4.9 19 Noroeste 40 Oeste 0 -- -- 86
2018-02-11 04:00:00 4.8 26 Noroeste 42 Oeste 0 -- -- 84
2018-02-11 03:00:00 4.9 18 Noroeste 37 Noroeste 0 -- -- 84
2018-02-11 02:00:00 4.6 20 Noroeste 40 Oeste 0 -- -- 85
2018-02-11 01:00:00 3.7 21 Oeste 41 Noroeste 0 -- -- 86
2018-02-11 00:00:00 3.2 22 Oeste 46 Noroeste 0 -- -- 88
2018-02-10 23:00:00 3.2 24 Oeste 48 Oeste 0 -- -- 85
2018-02-10 22:00:00 3 29 Oeste 50 Oeste 0 -- -- 84
2018-02-10 21:00:00 3.4 27 Oeste 52 Noroeste 0 -- -- 79
2018-02-10 20:00:00 3.8 32 Noroeste 49 Noroeste 0 -- -- 71
2018-02-10 19:00:00 4.4 24 Noroeste 48 Oeste 0 -- -- 65
2018-02-10 18:00:00 5.8 27 Noroeste 50 Oeste 0 -- -- 58
2018-02-10 17:00:00 6.9 30 Noroeste 51 Oeste 0 -- -- 53
2018-02-10 16:00:00 7.5 24 Noroeste 54 Oeste 0 -- -- 53
2018-02-10 15:00:00 7 33 Oeste 53 Oeste 0 -- -- 56
2018-02-10 14:00:00 7.2 22 Oeste 43 Noroeste 0 -- -- 55
2018-02-10 13:00:00 6.2 24 Noroeste 38 Noroeste 0 -- -- 57
2018-02-10 12:00:00 5.6 17 Oeste 37 Noroeste 0 -- -- 62
2018-02-10 11:00:00 3.9 23 Oeste 42 Oeste 0 -- -- 71
2018-02-10 10:00:00 2.5 19 Noroeste 35 Oeste 0 -- -- 81
2018-02-10 09:00:00 1.4 16 Oeste 36 Noroeste 0 -- -- 82
2018-02-10 08:00:00 1.1 21 Oeste 41 Oeste 0 -- -- 81
2018-02-10 07:00:00 0.9 13 Noroeste 32 Oeste 0 -- -- 82
2018-02-10 06:00:00 1 15 Oeste 33 Oeste 0 -- -- 81
2018-02-10 05:00:00 0.5 22 Oeste 36 Oeste 0 -- -- 89
2018-02-10 04:00:00 0.9 21 Oeste 34 Oeste 0 -- -- 85
2018-02-10 03:00:00 1.1 21 Oeste 39 Noroeste 0 -- -- 82
2018-02-10 02:00:00 1.3 22 Oeste 39 Oeste 0 -- -- 85
2018-02-10 01:00:00 1.7 22 Oeste 40 Oeste 0 -- -- 82
2018-02-10 00:00:00 1.9 19 Oeste 37 Noroeste 0 -- -- 81
2018-02-09 23:00:00 1.9 21 Oeste 43 Noroeste 0 -- -- 86
2018-02-09 22:00:00 2.9 23 Noroeste 41 Oeste 0 -- -- 85
2018-02-09 21:00:00 3 22 Noroeste 36 Noroeste 0 -- -- 86
2018-02-09 20:00:00 3.8 22 Oeste 44 Oeste 0 -- -- 88
2018-02-09 19:00:00 4.2 21 Oeste 37 Oeste 0 -- -- 91
2018-02-09 18:00:00 4.1 23 Oeste 39 Noroeste 0 -- -- 88
2018-02-09 17:00:00 5 25 Oeste 48 Oeste 0 -- -- 75
2018-02-09 16:00:00 5.5 26 Oeste 38 Oeste 0 -- -- 71
2018-02-09 15:00:00 4.3 20 Oeste 45 Oeste 0 -- -- 71
2018-02-09 14:00:00 4.2 27 Oeste 45 Oeste 0 -- -- 69
2018-02-09 13:00:00 3.7 28 Oeste 42 Oeste 0 -- -- 65
2018-02-09 12:00:00 2.7 20 Noroeste 31 Oeste 0 -- -- 64
2018-02-09 11:00:00 1.2 15 Oeste 19 Oeste 0 -- -- 77
2018-02-09 10:00:00 -0.1 5 Oeste 8 Oeste 0 -- -- 79
2018-02-09 09:00:00 -2.1 0 Calma 8 Nordeste 0 -- -- 86
2018-02-09 08:00:00 -3.7 6 Este 9 Nordeste 0 -- -- 87
2018-02-09 07:00:00 -3 2 Nordeste 6 Este 0 -- -- 89
2018-02-09 06:00:00 -3.3 3 Este 9 Este 0 -- -- 90
2018-02-09 05:00:00 -3.2 0 Calma 8 Este 0 -- -- 89
2018-02-09 04:00:00 -2.9 3 Este 6 Este 0 -- -- 89
2018-02-09 03:00:00 -2.7 3 Noroeste 7 Este 0 -- -- 88
2018-02-09 02:00:00 -2.1 0 Calma 8 Este 0 -- -- 87
2018-02-09 01:00:00 -1.7 4 Este 5 Nordeste 0 -- -- 85
2018-02-09 00:00:00 -1.2 6 Noroeste 26 Noroeste 0 -- -- 83
2018-02-08 23:00:00 0.1 20 Noroeste 32 Noroeste 0 -- -- 75
2018-02-08 22:00:00 0.4 17 Noroeste 30 Noroeste 0 -- -- 73
2018-02-08 21:00:00 0.7 15 Noroeste 39 Noroeste 0 -- -- 69
2018-02-08 20:00:00 1.3 22 Noroeste 36 Noroeste 0 -- -- 69
2018-02-08 19:00:00 1.7 18 Oeste 37 Oeste 0 -- -- 67
2018-02-08 18:00:00 2.7 26 Noroeste 50 Noroeste 0 -- -- 64
2018-02-08 17:00:00 3.5 32 Oeste 56 Oeste 0 -- -- 60
2018-02-08 16:00:00 3.3 25 Oeste 49 Oeste 0 -- -- 55
2018-02-08 15:00:00 4.2 23 Oeste 51 Noroeste 0 -- -- 56
2018-02-08 14:00:00 3.7 23 Noroeste 40 Noroeste 0 -- -- 57
2018-02-08 13:00:00 3.7 24 Noroeste 46 Oeste 0 -- -- 59
2018-02-08 12:00:00 2.4 29 Noroeste 50 Noroeste 0 -- -- 65
2018-02-08 11:00:00 2.1 26 Noroeste 43 Oeste 0 -- -- 70
2018-02-08 10:00:00 0.2 21 Oeste 33 Oeste 0 -- -- 88
2018-02-08 09:00:00 -0.5 20 Oeste 34 Oeste 0 -- -- 91
2018-02-08 08:00:00 -0.7 21 Oeste 35 Noroeste 0 -- -- 92
2018-02-08 07:00:00 -2 14 Oeste 32 Oeste 0 -- -- 91
2018-02-08 06:00:00 -1.1 17 Oeste 32 Noroeste 0 -- -- 91
2018-02-08 05:00:00 -0.6 15 Noroeste 33 Noroeste 0 -- -- 86
2018-02-08 04:00:00 -0.7 18 Noroeste 38 Oeste 0 -- -- 84
2018-02-08 03:00:00 -0.4 19 Noroeste 40 Noroeste 0 -- -- 80
2018-02-08 02:00:00 -0.6 19 Oeste 40 Noroeste 0 -- -- 80
2018-02-08 01:00:00 -0.7 18 Oeste 37 Noroeste 0 -- -- 77
2018-02-08 00:00:00 -0.5 23 Oeste 48 Noroeste 0 -- -- 74
2018-02-07 23:00:00 -0.4 29 Noroeste 47 Noroeste 0 -- -- 75
2018-02-07 22:00:00 -0.1 27 Noroeste 39 Oeste 0 -- -- 77
2018-02-07 21:00:00 0.3 21 Oeste 36 Oeste 0 -- -- 75
2018-02-07 20:00:00 0.4 22 Oeste 42 Noroeste 0 -- -- 74
2018-02-07 19:00:00 1.2 25 Noroeste 46 Noroeste 0 -- -- 65
2018-02-07 18:00:00 2.2 23 Noroeste 49 Noroeste 0 -- -- 60
2018-02-07 17:00:00 4.2 21 Noroeste 52 Noroeste 0 -- -- 50
2018-02-07 16:00:00 4.4 28 Noroeste 58 Noroeste 0 -- -- 48
2018-02-07 15:00:00 5.1 23 Noroeste 56 Oeste 0 -- -- 47
2018-02-07 14:00:00 5 23 Oeste 51 Noroeste 0 -- -- 47
2018-02-07 13:00:00 4.2 27 Noroeste 51 Oeste 0 -- -- 52
2018-02-07 12:00:00 3 29 Oeste 52 Oeste 0 -- -- 63
2018-02-07 11:00:00 1.5 30 Oeste 45 Oeste 0 -- -- 70
2018-02-07 10:00:00 0.2 26 Oeste 48 Oeste 0 -- -- 77
2018-02-07 09:00:00 -0.3 24 Oeste 48 Oeste 0 -- -- 74
2018-02-07 08:00:00 -1 24 Oeste 41 Oeste 0 -- -- 83
2018-02-07 07:00:00 -0.8 24 Oeste 46 Oeste 0 -- -- 80
2018-02-07 06:00:00 -0.6 23 Oeste 37 Oeste 0 -- -- 81
2018-02-07 05:00:00 -0.5 23 Noroeste 44 Oeste 0 -- -- 81
2018-02-07 04:00:00 -0.2 30 Oeste 48 Oeste 0 -- -- 80
2018-02-07 03:00:00 -0.4 24 Oeste 37 Oeste 0 -- -- 80
2018-02-07 02:00:00 -0.3 23 Oeste 41 Oeste 0 -- -- 79
2018-02-07 01:00:00 -0.1 22 Noroeste 45 Oeste 0 -- -- 77
2018-02-07 00:00:00 0 20 Noroeste 41 Oeste 0 -- -- 76
2018-02-06 23:00:00 0.2 19 Noroeste 38 Oeste 0 -- -- 74
2018-02-06 22:00:00 0.4 18 Oeste 38 Oeste 0 -- -- 71
2018-02-06 21:00:00 0.9 23 Oeste 44 Oeste 0 -- -- 72
2018-02-06 20:00:00 1.3 22 Noroeste 39 Oeste 0 -- -- 76
2018-02-06 19:00:00 2 24 Noroeste 42 Noroeste 0 -- -- 64
2018-02-06 18:00:00 2.4 25 Noroeste 47 Noroeste 0 -- -- 63
2018-02-06 17:00:00 2.9 19 Oeste 46 Oeste 0 -- -- 63
2018-02-06 16:00:00 3.3 23 Noroeste 45 Oeste 0 -- -- 61
2018-02-06 15:00:00 3.3 25 Oeste 45 Oeste 0 -- -- 60
2018-02-06 14:00:00 3 25 Oeste 41 Oeste 0 -- -- 61
2018-02-06 13:00:00 1.8 24 Oeste 42 Noroeste 0 -- -- 61
2018-02-06 12:00:00 0.9 26 Oeste 48 Noroeste 0 -- -- 67
2018-02-06 11:00:00 0.9 28 Oeste 49 Noroeste 0 -- -- 72
2018-02-06 10:00:00 0.7 22 Noroeste 39 Noroeste 0 -- -- 76
2018-02-06 09:00:00 0.3 21 Noroeste 40 Noroeste 0 -- -- 78
2018-02-06 08:00:00 0.2 15 Oeste 38 Noroeste 0.2 -- -- 86
2018-02-06 07:00:00 0.5 18 Noroeste 33 Oeste 0 -- -- 87
2018-02-06 06:00:00 1.1 17 Noroeste 31 Noroeste 0 -- -- 85
2018-02-06 05:00:00 1.4 19 Noroeste 33 Oeste 0 -- -- 87
2018-02-06 04:00:00 1.4 20 Noroeste 40 Noroeste 0 -- -- 90
2018-02-06 03:00:00 1.2 13 Oeste 28 Oeste 0 -- -- 96
2018-02-06 02:00:00 1.3 11 Oeste 21 Oeste 0 -- -- 97
2018-02-06 01:00:00 1.6 12 Oeste 20 Oeste 0 -- -- 98
2018-02-06 00:00:00 2 11 Oeste 16 Oeste 0.2 -- -- 98
2018-02-05 23:00:00 2.1 8 Oeste 15 Oeste 0 -- -- 98
2018-02-05 22:00:00 2.3 9 Oeste 17 Oeste 0 -- -- 98
2018-02-05 21:00:00 2.4 0 Calma 5 Este 0 -- -- 98
2018-02-05 20:00:00 2.6 2 Norte 5 Este 0.6 -- -- 98
2018-02-05 19:00:00 2.6 2 Este 3 Este 0.4 -- -- 98
2018-02-05 18:00:00 2.7 3 Este 7 Oeste 0.6 -- -- 98
2018-02-05 17:00:00 2.7 2 Sudoeste 6 Este 0.2 -- -- 98
2018-02-05 16:00:00 2.6 0 Calma 9 Este 0.6 -- -- 98
2018-02-05 15:00:00 2.2 4 Sudoeste 12 Este 1 -- -- 98
2018-02-05 14:00:00 1.3 2 Este 4 Este 1.4 -- -- 99
2018-02-05 13:00:00 0.7 0 Calma 6 Noroeste 1.2 -- -- 99
2018-02-05 12:00:00 0.4 0 Calma 5 Oeste 0.6 -- -- 98
2018-02-05 11:00:00 1.4 5 Noroeste 12 Oeste 2 -- -- 97
2018-02-05 10:00:00 2.5 5 Oeste 9 Oeste 0.2 -- -- 98
2018-02-05 09:00:00 2 5 Oeste 7 Oeste 0.6 -- -- 98
2018-02-05 08:00:00 1.8 2 Sur 3 Sur 0.4 -- -- 98
2018-02-05 07:00:00 1.5 2 Oeste 9 Oeste 0.2 -- -- 98
2018-02-05 06:00:00 1.4 5 Oeste 7 Oeste 0.2 -- -- 98
2018-02-05 05:00:00 1.3 4 Oeste 10 Oeste 0.2 -- -- 98
2018-02-05 04:00:00 1.3 7 Oeste 9 Oeste 0 -- -- 97
2018-02-05 03:00:00 1.8 4 Oeste 11 Nordeste 0 -- -- 97
2018-02-05 02:00:00 1.9 8 Este 13 Nordeste 0 -- -- 97
2018-02-05 01:00:00 1.7 5 Este 15 Este 0 -- -- 96
2018-02-05 00:00:00 1.7 14 Este 25 Nordeste 0 -- -- 96
2018-02-04 23:00:00 1.4 15 Este 25 Este 0.2 -- -- 96
2018-02-04 22:00:00 0.9 6 Este 9 Este 0.4 -- -- 95
2018-02-04 21:00:00 1.3 6 Este 12 Este 1 -- -- 95
2018-02-04 20:00:00 1.9 6 Este 15 Nordeste 0.4 -- -- 94
2018-02-04 19:00:00 2.2 13 Nordeste 17 Nordeste 0.4 -- -- 94
2018-02-04 18:00:00 2.5 7 Nordeste 14 Este 0 -- -- 94
2018-02-04 17:00:00 2.5 8 Nordeste 19 Nordeste 0.4 -- -- 93
2018-02-04 16:00:00 2.9 11 Este 17 Nordeste 0.6 -- -- 94
2018-02-04 15:00:00 2.7 11 Nordeste 19 Nordeste 1 -- -- 93
2018-02-04 14:00:00 3.4 15 Nordeste 19 Nordeste 0.4 -- -- 93
2018-02-04 13:00:00 3.2 13 Nordeste 22 Nordeste 0.8 -- -- 92
2018-02-04 12:00:00 3.4 13 Este 21 Este 0.2 -- -- 92
2018-02-04 11:00:00 3.2 2 Sudeste 9 Sudoeste 0 -- -- 95
2018-02-04 10:00:00 2.7 8 Oeste 14 Sudoeste 0 -- -- 94
2018-02-04 09:00:00 2.4 9 Sudoeste 15 Oeste 0 -- -- 93
2018-02-04 08:00:00 2.5 12 Oeste 26 Oeste 0 -- -- 93
2018-02-04 07:00:00 2.5 15 Oeste 32 Oeste 0 -- -- 93
2018-02-04 06:00:00 2.7 21 Oeste 32 Oeste 0 -- -- 92
2018-02-04 05:00:00 3 19 Oeste 31 Oeste 0 -- -- 92
2018-02-04 04:00:00 3.4 17 Oeste 34 Oeste 0 -- -- 90
2018-02-04 03:00:00 3.6 15 Noroeste 32 Oeste 0 -- -- 90
2018-02-04 02:00:00 3.8 18 Oeste 26 Noroeste 0 -- -- 88
2018-02-04 01:00:00 3.7 13 Oeste 26 Noroeste 0 -- -- 88
2018-02-04 00:00:00 4 18 Oeste 28 Oeste 0 -- -- 88
2018-02-03 23:00:00 4.4 20 Oeste 38 Noroeste 0 -- -- 88
2018-02-03 22:00:00 5 20 Noroeste 41 Oeste 0 -- -- 83
2018-02-03 21:00:00 5 23 Oeste 38 Oeste 0 -- -- 87
2018-02-03 20:00:00 5 16 Oeste 29 Oeste 0 -- -- 88
2018-02-03 19:00:00 5.1 20 Oeste 36 Oeste 0 -- -- 87
2018-02-03 18:00:00 5.2 21 Oeste 39 Noroeste 0.4 -- -- 84
2018-02-03 17:00:00 6 19 Oeste 35 Oeste 0 -- -- 74
2018-02-03 16:00:00 6.4 18 Noroeste 38 Oeste 0 -- -- 67
2018-02-03 15:00:00 6.7 24 Oeste 48 Noroeste 0 -- -- 65
2018-02-03 14:00:00 6.1 29 Noroeste 49 Noroeste 0 -- -- 66
2018-02-03 13:00:00 5.8 27 Oeste 52 Oeste 0 -- -- 69
2018-02-03 12:00:00 4.8 29 Oeste 50 Oeste 0 -- -- 72
2018-02-03 11:00:00 4.1 27 Oeste 42 Oeste 0 -- -- 75
2018-02-03 10:00:00 2.6 23 Oeste 40 Oeste 0 -- -- 85
2018-02-03 09:00:00 1.6 25 Oeste 39 Oeste 0 -- -- 89
2018-02-03 08:00:00 1.2 19 Oeste 39 Noroeste 0 -- -- 92
2018-02-03 07:00:00 0.8 21 Oeste 37 Oeste 0 -- -- 94
2018-02-03 06:00:00 1.2 23 Noroeste 41 Oeste 0 -- -- 91
2018-02-03 05:00:00 0.8 27 Oeste 44 Oeste 0 -- -- 91
2018-02-03 04:00:00 0.8 21 Oeste 40 Noroeste 0 -- -- 90
2018-02-03 03:00:00 0.9 21 Noroeste 40 Noroeste 0 -- -- 88
2018-02-03 02:00:00 1.2 21 Noroeste 44 Oeste 0 -- -- 87
2018-02-03 01:00:00 0.5 23 Noroeste 42 Oeste 0 -- -- 90
2018-02-03 00:00:00 1 25 Oeste 39 Oeste 0 -- -- 87
2018-02-02 23:00:00 0.9 20 Oeste 42 Oeste 0 -- -- 87
2018-02-02 22:00:00 1.1 25 Noroeste 38 Oeste 0 -- -- 86
2018-02-02 21:00:00 1.5 25 Noroeste 44 Noroeste 0 -- -- 80
2018-02-02 20:00:00 1.9 19 Noroeste 39 Oeste 0 -- -- 75
2018-02-02 19:00:00 2.9 18 Noroeste 37 Noroeste 0 -- -- 64
2018-02-02 18:00:00 4.8 14 Noroeste 49 Oeste 0 -- -- 52
2018-02-02 17:00:00 5.9 27 Noroeste 49 Noroeste 0 -- -- 41
2018-02-02 16:00:00 6.7 26 Noroeste 45 Noroeste 0 -- -- 40
2018-02-02 15:00:00 7 26 Noroeste 51 Noroeste 0 -- -- 43
2018-02-02 14:00:00 6.6 28 Noroeste 56 Noroeste 0 -- -- 43
2018-02-02 13:00:00 6.3 29 Noroeste 54 Noroeste 0 -- -- 43
2018-02-02 12:00:00 5 28 Noroeste 52 Oeste 0 -- -- 54
2018-02-02 11:00:00 3.4 28 Noroeste 49 Noroeste 0 -- -- 69
2018-02-02 10:00:00 1.8 27 Noroeste 46 Noroeste 0 -- -- 79
2018-02-02 09:00:00 0.5 12 Noroeste 25 Noroeste 0 -- -- 85
2018-02-02 08:00:00 0.1 12 Noroeste 34 Noroeste 0 -- -- 86
2018-02-02 07:00:00 0.3 22 Noroeste 39 Noroeste 0 -- -- 88
2018-02-02 06:00:00 0.4 18 Oeste 33 Oeste 0 -- -- 90
2018-02-02 05:00:00 0.7 14 Noroeste 33 Oeste 0 -- -- 90
2018-02-02 04:00:00 0.8 15 Oeste 31 Oeste 0 -- -- 90
2018-02-02 03:00:00 0.6 13 Oeste 33 Oeste 0 -- -- 91
2018-02-02 02:00:00 0.8 16 Oeste 36 Oeste 0 -- -- 89
2018-02-02 01:00:00 1 19 Noroeste 36 Oeste 0 -- -- 88
2018-02-02 00:00:00 1.4 24 Noroeste 47 Oeste 0 -- -- 86
2018-02-01 23:00:00 1.5 20 Noroeste 40 Noroeste 0 -- -- 87
2018-02-01 22:00:00 1.9 22 Oeste 40 Oeste 0 -- -- 85
2018-02-01 21:00:00 2.1 18 Oeste 41 Oeste 0 -- -- 85
2018-02-01 20:00:00 2.3 24 Oeste 41 Oeste 0 -- -- 86
2018-02-01 19:00:00 2.7 21 Oeste 46 Oeste 0 -- -- 86
2018-02-01 18:00:00 3.6 26 Oeste 40 Oeste 0 -- -- 83
2018-02-01 17:00:00 5.1 18 Noroeste 39 Noroeste 0 -- -- 73
2018-02-01 16:00:00 5.9 21 Noroeste 43 Noroeste 0 -- -- 70
2018-02-01 15:00:00 6.8 23 Noroeste 40 Oeste 0 -- -- 68
2018-02-01 14:00:00 7.7 28 Oeste 50 Oeste 0 -- -- 69
2018-02-01 13:00:00 7.1 28 Oeste 48 Oeste 0 -- -- 75
2018-02-01 12:00:00 6.3 24 Oeste 38 Oeste 0 -- -- 85
2018-02-01 11:00:00 5.8 16 Oeste 30 Noroeste 0 -- -- 86
2018-02-01 10:00:00 4.4 10 Oeste 15 Oeste 0 -- -- 95
2018-02-01 09:00:00 4 9 Oeste 15 Oeste 0 -- -- 95
2018-02-01 08:00:00 3.6 6 Oeste 11 Oeste 0 -- -- 95
2018-02-01 07:00:00 3.4 10 Oeste 15 Oeste 0 -- -- 94
2018-02-01 06:00:00 3.7 7 Noroeste 10 Noroeste 0 -- -- 93
2018-02-01 05:00:00 4 5 Noroeste 9 Noroeste 0 -- -- 92
2018-02-01 04:00:00 3.5 0 Calma 5 Este 0 -- -- 93
2018-02-01 03:00:00 3.7 0 Calma 9 Nordeste 0 -- -- 93
2018-02-01 02:00:00 3.6 4 Norte 14 Nordeste 0 -- -- 93
2018-02-01 01:00:00 3.3 10 Nordeste 14 Nordeste 0 -- -- 94
2018-02-01 00:00:00 3.3 10 Nordeste 13 Nordeste 0 -- -- 93
2018-01-31 23:00:00 3.5 9 Nordeste 12 Nordeste 0 -- -- 90
2018-01-31 22:00:00 3.7 9 Este 13 Este 0 -- -- 92
2018-01-31 21:00:00 3.8 8 Este 9 Este 0 -- -- 89
2018-01-31 20:00:00 5.1 5 Este 12 Nordeste 0 -- -- 89
2018-01-31 19:00:00 7.7 6 Nordeste 8 Nordeste 0 -- -- 81
2018-01-31 18:00:00 10.3 5 Oeste 13 Oeste 0 -- -- 72
2018-01-31 17:00:00 12 11 Oeste 14 Oeste 0 -- -- 67
2018-01-31 16:00:00 12.5 8 Oeste 16 Sudoeste 0 -- -- 66
2018-01-31 15:00:00 11.1 14 Oeste 19 Oeste 0 -- -- 72
2018-01-31 14:00:00 10.9 13 Oeste 18 Oeste 0 -- -- 71
2018-01-31 13:00:00 10.8 8 Oeste 14 Oeste 0 -- -- 73
2018-01-31 12:00:00 7.2 12 Oeste 17 Oeste 0 -- -- 84
2018-01-31 11:00:00 6.4 7 Oeste 10 Oeste 0 -- -- 88
2018-01-31 10:00:00 5.2 4 Nordeste 14 Nordeste 0 -- -- 93
2018-01-31 09:00:00 2.6 11 Nordeste 13 Nordeste 0 -- -- 92
2018-01-31 08:00:00 2.6 2 Oeste 13 Nordeste 0 -- -- 92
2018-01-31 07:00:00 2.9 9 Nordeste 15 Nordeste 0 -- -- 93
2018-01-31 06:00:00 2.8 11 Nordeste 14 Nordeste 0 -- -- 89
2018-01-31 05:00:00 4.5 10 Nordeste 15 Nordeste 0 -- -- 89
2018-01-31 04:00:00 3.1 12 Este 14 Este 0 -- -- 89
2018-01-31 03:00:00 4.7 10 Nordeste 14 Nordeste 0 -- -- 86
2018-01-31 02:00:00 3.9 10 Nordeste 14 Nordeste 0 -- -- 84
2018-01-31 01:00:00 3.8 12 Nordeste 14 Nordeste 0 -- -- 85
2018-01-31 00:00:00 4.9 9 Nordeste 14 Nordeste 0 -- -- 86
2018-01-30 23:00:00 5.3 12 Nordeste 16 Nordeste 0 -- -- 88
2018-01-30 22:00:00 4.9 11 Nordeste 14 Nordeste 0 -- -- 86
2018-01-30 21:00:00 5.3 9 Nordeste 13 Nordeste 0 -- -- 78
2018-01-30 20:00:00 5.8 9 Nordeste 13 Nordeste 0 -- -- 83
2018-01-30 19:00:00 8.2 8 Nordeste 10 Nordeste 0 -- -- 72
2018-01-30 18:00:00 11.8 5 Oeste 9 Oeste 0 -- -- 63
2018-01-30 17:00:00 13.4 7 Oeste 13 Oeste 0 -- -- 56
2018-01-30 16:00:00 13.5 8 Oeste 13 Sudoeste 0 -- -- 53
2018-01-30 15:00:00 13.2 5 Sudoeste 13 Sudoeste 0 -- -- 50
2018-01-30 14:00:00 11.5 8 Oeste 14 Oeste 0 -- -- 58
2018-01-30 13:00:00 9.9 10 Oeste 15 Oeste 0 -- -- 71
2018-01-30 12:00:00 9 7 Sudoeste 11 Oeste 0 -- -- 72
2018-01-30 11:00:00 7 5 Oeste 9 Oeste 0 -- -- 83
2018-01-30 10:00:00 3.9 5 Este 10 Nordeste 0 -- -- 95
2018-01-30 09:00:00 3.1 3 Nordeste 10 Nordeste 0 -- -- 94
2018-01-30 08:00:00 2.5 9 Nordeste 13 Nordeste 0 -- -- 95
2018-01-30 07:00:00 2.3 12 Nordeste 14 Nordeste 0 -- -- 95
2018-01-30 06:00:00 2.6 8 Nordeste 9 Nordeste 0 -- -- 92
2018-01-30 05:00:00 2.7 9 Nordeste 12 Nordeste 0 -- -- 93
2018-01-30 04:00:00 2.8 10 Nordeste 12 Nordeste 0 -- -- 92
2018-01-30 03:00:00 3.6 9 Nordeste 12 Nordeste 0 -- -- 91
2018-01-30 02:00:00 3.6 9 Nordeste 12 Nordeste 0 -- -- 89
2018-01-30 01:00:00 4.6 10 Nordeste 12 Nordeste 0 -- -- 88
2018-01-30 00:00:00 6.1 7 Nordeste 13 Nordeste 0 -- -- 84
2018-01-29 23:00:00 5.4 7 Nordeste 13 Nordeste 0 -- -- 84
2018-01-29 22:00:00 6.2 8 Nordeste 12 Nordeste 0 -- -- 83
2018-01-29 21:00:00 5.3 10 Nordeste 13 Nordeste 0 -- -- 86
2018-01-29 20:00:00 5.8 10 Nordeste 12 Nordeste 0 -- -- 84
2018-01-29 19:00:00 7.7 7 Nordeste 8 Nordeste 0 -- -- 78
2018-01-29 18:00:00 10.4 6 Oeste 13 Sudoeste 0 -- -- 69
2018-01-29 17:00:00 11.7 8 Oeste 15 Sudoeste 0 -- -- 64
2018-01-29 16:00:00 11.7 10 Oeste 15 Sudoeste 0 -- -- 65
2018-01-29 15:00:00 10.9 13 Oeste 21 Sudoeste 0 -- -- 67
2018-01-29 14:00:00 10.4 13 Sudoeste 19 Sudoeste 0 -- -- 68
2018-01-29 13:00:00 9.3 13 Oeste 17 Sudoeste 0 -- -- 73
2018-01-29 12:00:00 7.5 10 Oeste 18 Oeste 0 -- -- 79
2018-01-29 11:00:00 6.4 12 Oeste 15 Sudoeste 0 -- -- 83
2018-01-29 10:00:00 4.6 4 Oeste 8 Oeste 0 -- -- 89
2018-01-29 09:00:00 2.3 8 Nordeste 10 Este 0 -- -- 92
2018-01-29 08:00:00 2.2 8 Este 9 Nordeste 0 -- -- 92
2018-01-29 07:00:00 3.3 5 Nordeste 10 Nordeste 0 -- -- 91
2018-01-29 06:00:00 2.8 4 Nordeste 8 Este 0 -- -- 91
2018-01-29 05:00:00 3.5 6 Nordeste 10 Este 0 -- -- 89
2018-01-29 04:00:00 3.7 8 Nordeste 12 Nordeste 0 -- -- 85
2018-01-29 03:00:00 3.8 9 Nordeste 12 Nordeste 0 -- -- 86
2018-01-29 02:00:00 4.5 8 Nordeste 13 Este 0 -- -- 85
2018-01-29 01:00:00 5.4 9 Nordeste 13 Nordeste 0 -- -- 80
2018-01-29 00:00:00 4.3 12 Nordeste 13 Nordeste 0 -- -- 82
2018-01-28 23:00:00 4.1 12 Nordeste 13 Nordeste 0 -- -- 85
2018-01-28 22:00:00 4.9 10 Nordeste 14 Nordeste 0 -- -- 82
2018-01-28 21:00:00 4.5 12 Nordeste 14 Nordeste 0 -- -- 85
2018-01-28 20:00:00 5.5 9 Nordeste 12 Nordeste 0 -- -- 81
2018-01-28 19:00:00 7.2 6 Este 8 Este 0 -- -- 75
2018-01-28 18:00:00 10.6 0 Calma 10 Sudoeste 0 -- -- 62
2018-01-28 17:00:00 11.3 6 Oeste 15 Sudoeste 0 -- -- 60
2018-01-28 16:00:00 10.9 10 Oeste 17 Sudoeste 0 -- -- 60
2018-01-28 15:00:00 10.3 10 Sudoeste 17 Oeste 0 -- -- 64
2018-01-28 14:00:00 8.9 12 Oeste 20 Oeste 0 -- -- 66
2018-01-28 13:00:00 7.3 16 Oeste 22 Oeste 0 -- -- 69
2018-01-28 12:00:00 5.9 12 Sudoeste 18 Sudoeste 0 -- -- 73
2018-01-28 11:00:00 4.1 8 Sudoeste 12 Sudoeste 0 -- -- 79
2018-01-28 10:00:00 2.1 4 Oeste 7 Noroeste 0 -- -- 87
2018-01-28 09:00:00 0.4 5 Este 11 Este 0 -- -- 91
2018-01-28 08:00:00 -0.1 3 Este 6 Este 0 -- -- 90
2018-01-28 07:00:00 0.1 2 Este 7 Sudeste 0 -- -- 91
2018-01-28 06:00:00 0.6 2 Este 5 Este 0 -- -- 90
2018-01-28 05:00:00 1 3 Este 6 Este 0 -- -- 88
2018-01-28 04:00:00 1.6 0 Calma 6 Este 0 -- -- 89
2018-01-28 03:00:00 0.9 5 Este 8 Este 0 -- -- 90
2018-01-28 02:00:00 0.7 5 Este 8 Nordeste 0 -- -- 89
2018-01-28 01:00:00 0.8 5 Este 8 Este 0 -- -- 88
2018-01-28 00:00:00 1.1 0 Calma 9 Este 0 -- -- 86
2018-01-27 23:00:00 1.7 3 Este 6 Este 0 -- -- 83
2018-01-27 22:00:00 2.2 3 Este 9 Oeste 0 -- -- 81
2018-01-27 21:00:00 3 6 Oeste 13 Oeste 0 -- -- 78
2018-01-27 20:00:00 3.6 8 Oeste 15 Oeste 0 -- -- 76
2018-01-27 19:00:00 4.9 13 Oeste 27 Noroeste 0 -- -- 70
2018-01-27 18:00:00 7.5 15 Noroeste 28 Oeste 0 -- -- 59
2018-01-27 17:00:00 9.1 19 Oeste 38 Noroeste 0 -- -- 55
2018-01-27 16:00:00 9.7 17 Noroeste 32 Oeste 0 -- -- 51
2018-01-27 15:00:00 9.7 19 Noroeste 37 Noroeste 0 -- -- 50
2018-01-27 14:00:00 9.6 22 Noroeste 37 Noroeste 0 -- -- 49
2018-01-27 13:00:00 8.5 21 Noroeste 39 Oeste 0 -- -- 51
2018-01-27 12:00:00 7.8 24 Noroeste 42 Noroeste 0 -- -- 52
2018-01-27 11:00:00 5.7 15 Noroeste 29 Oeste 0 -- -- 63
2018-01-27 10:00:00 4.2 11 Noroeste 28 Noroeste 0 -- -- 71
2018-01-27 09:00:00 2.7 13 Oeste 23 Oeste 0 -- -- 84
2018-01-27 08:00:00 1.6 9 Oeste 27 Oeste 0 -- -- 87
2018-01-27 07:00:00 3 17 Noroeste 33 Noroeste 0 -- -- 82
2018-01-27 06:00:00 3.6 21 Noroeste 38 Noroeste 0 -- -- 78
2018-01-27 05:00:00 3.1 19 Noroeste 37 Noroeste 0 -- -- 83
2018-01-27 04:00:00 3.2 23 Oeste 44 Oeste 0 -- -- 86
2018-01-27 03:00:00 2.9 21 Noroeste 41 Noroeste 0 -- -- 89
2018-01-27 02:00:00 3 24 Noroeste 42 Noroeste 0 -- -- 87
2018-01-27 01:00:00 3 26 Noroeste 44 Noroeste 0 -- -- 88
2018-01-27 00:00:00 3.4 26 Noroeste 44 Noroeste 0 -- -- 86
2018-01-26 23:00:00 3.3 22 Noroeste 53 Oeste 0 -- -- 88
2018-01-26 22:00:00 3.4 24 Noroeste 47 Noroeste 0 -- -- 88
2018-01-26 21:00:00 3.4 25 Noroeste 48 Noroeste 0 -- -- 86
2018-01-26 20:00:00 3.7 26 Oeste 45 Noroeste 0 -- -- 86
2018-01-26 19:00:00 4.1 26 Oeste 47 Oeste 0 -- -- 87
2018-01-26 18:00:00 5.4 27 Oeste 51 Oeste 0 -- -- 81
2018-01-26 17:00:00 6.6 21 Oeste 47 Oeste 0 -- -- 70
2018-01-26 16:00:00 6.9 29 Noroeste 60 Oeste 0 -- -- 72
2018-01-26 15:00:00 7.4 28 Noroeste 57 Noroeste 0 -- -- 67
2018-01-26 14:00:00 7 26 Noroeste 51 Oeste 0 -- -- 73
2018-01-26 13:00:00 6.7 26 Noroeste 54 Noroeste 0 -- -- 78
2018-01-26 12:00:00 6.3 30 Noroeste 55 Oeste 0 -- -- 79
2018-01-26 11:00:00 4.9 30 Oeste 50 Oeste 0 -- -- 87
2018-01-26 10:00:00 4.3 30 Oeste 58 Oeste 0 -- -- 88
2018-01-26 09:00:00 3.5 24 Oeste 45 Oeste 0 -- -- 88
2018-01-26 08:00:00 3.8 23 Noroeste 48 Oeste 0 -- -- 88
2018-01-26 07:00:00 3.8 25 Oeste 45 Oeste 0 -- -- 90
2018-01-26 06:00:00 3.8 21 Noroeste 47 Oeste 0 -- -- 90
2018-01-26 05:00:00 4.2 23 Oeste 39 Oeste 0 -- -- 89
2018-01-26 04:00:00 4 21 Noroeste 40 Noroeste 0 -- -- 92
2018-01-26 03:00:00 3.9 23 Noroeste 46 Oeste 0 -- -- 93
2018-01-26 02:00:00 3.7 25 Oeste 42 Noroeste 0 -- -- 95
2018-01-26 01:00:00 3.8 22 Noroeste 36 Oeste 0.2 -- -- 94
2018-01-26 00:00:00 4.1 22 Oeste 34 Oeste 0.8 -- -- 94
2018-01-25 23:00:00 4.6 22 Oeste 35 Oeste 0.4 -- -- 93
2018-01-25 22:00:00 5.5 17 Noroeste 31 Noroeste 1.6 -- -- 92
2018-01-25 21:00:00 6.9 3 Norte 15 Oeste 0 -- -- 91
2018-01-25 20:00:00 7.1 5 Noroeste 15 Oeste 0.2 -- -- 92
2018-01-25 19:00:00 7.1 3 Sudeste 10 Sur 0 -- -- 95
2018-01-25 18:00:00 7.5 2 Sudoeste 17 Oeste 1.8 -- -- 95
2018-01-25 17:00:00 7.8 6 Nordeste 19 Este 0.8 -- -- 91
2018-01-25 16:00:00 8.4 13 Este 20 Este 0 -- -- 90
2018-01-25 15:00:00 7.6 15 Este 26 Este 0 -- -- 95
2018-01-25 14:00:00 7.3 19 Este 31 Este 0 -- -- 96
2018-01-25 13:00:00 7.1 21 Este 33 Este 0 -- -- 96
2018-01-25 12:00:00 6.5 19 Este 30 Este 0 -- -- 97
2018-01-25 11:00:00 6.3 19 Este 26 Este 0 -- -- 96
2018-01-25 10:00:00 6.3 22 Este 29 Este 0 -- -- 95
2018-01-25 09:00:00 6.8 21 Este 29 Este 0 -- -- 95
2018-01-25 08:00:00 6.5 18 Este 26 Este 0 -- -- 95
2018-01-25 07:00:00 6.9 16 Este 23 Este 0 -- -- 94
2018-01-25 06:00:00 7.3 13 Este 27 Este 0 -- -- 94
2018-01-25 05:00:00 7.7 14 Este 21 Este 0 -- -- 93
2018-01-25 04:00:00 7.8 10 Este 24 Este 0 -- -- 92
2018-01-25 03:00:00 8.1 14 Este 27 Este 0 -- -- 89
2018-01-25 02:00:00 8.2 19 Este 25 Este 0 -- -- 89
2018-01-25 01:00:00 8 15 Este 21 Este 0 -- -- 89
2018-01-25 00:00:00 8.9 13 Este 18 Este 0 -- -- 86
2018-01-24 23:00:00 9.1 11 Este 19 Nordeste 0 -- -- 86
2018-01-24 22:00:00 9.4 19 Este 26 Este 0 -- -- 88
2018-01-24 21:00:00 9.3 17 Este 22 Este 0 -- -- 90
2018-01-24 20:00:00 9.7 15 Este 21 Este 0 -- -- 88
2018-01-24 19:00:00 10.5 16 Este 22 Este 0 -- -- 84
2018-01-24 18:00:00 12.2 12 Este 25 Este 0 -- -- 78
2018-01-24 17:00:00 14.3 18 Este 26 Este 0 -- -- 69
2018-01-24 16:00:00 15.3 17 Este 26 Este 0 -- -- 64
2018-01-24 15:00:00 15.5 15 Este 25 Sudeste 0 -- -- 66
2018-01-24 14:00:00 15.2 14 Este 31 Este 0 -- -- 70
2018-01-24 13:00:00 13.7 22 Este 33 Este 0 -- -- 75
2018-01-24 12:00:00 11.4 18 Este 25 Este 0 -- -- 93
2018-01-24 11:00:00 8.7 13 Este 26 Este 0 -- -- 96
2018-01-24 10:00:00 8 16 Este 25 Este 0 -- -- 97
2018-01-24 09:00:00 7.5 18 Este 23 Este 0 -- -- 97
2018-01-24 08:00:00 7.3 14 Este 24 Este 0 -- -- 96
2018-01-24 07:00:00 7.2 16 Este 22 Este 0 -- -- 97
2018-01-24 06:00:00 6.5 15 Este 19 Este 0 -- -- 96
2018-01-24 05:00:00 6.4 14 Este 19 Este 0 -- -- 95
2018-01-24 04:00:00 6.2 12 Nordeste 20 Nordeste 0 -- -- 93
2018-01-24 03:00:00 5.5 11 Nordeste 17 Nordeste 0 -- -- 96
2018-01-24 02:00:00 5.5 11 Nordeste 15 Este 0 -- -- 92
2018-01-24 01:00:00 7.3 4 Norte 10 Este 0 -- -- 94
2018-01-24 00:00:00 7.4 4 Este 9 Sur 0 -- -- 93
2018-01-23 23:00:00 8.2 2 Oeste 7 Oeste 0 -- -- 91
2018-01-23 22:00:00 8.3 5 Oeste 19 Oeste 0 -- -- 90
2018-01-23 21:00:00 8.7 13 Oeste 18 Oeste 0 -- -- 91
2018-01-23 20:00:00 9.2 11 Oeste 20 Oeste 0 -- -- 87
2018-01-23 19:00:00 10.4 13 Oeste 40 Oeste 0 -- -- 83
2018-01-23 18:00:00 12.8 20 Noroeste 36 Oeste 0 -- -- 74
2018-01-23 17:00:00 14.2 23 Oeste 42 Oeste 0 -- -- 71
2018-01-23 16:00:00 15.2 24 Oeste 39 Oeste 0 -- -- 69
2018-01-23 15:00:00 13.9 25 Oeste 39 Oeste 0 -- -- 75
2018-01-23 14:00:00 13.3 24 Oeste 39 Oeste 0 -- -- 78
2018-01-23 13:00:00 12.1 18 Oeste 36 Oeste 0 -- -- 82
2018-01-23 12:00:00 11.6 21 Oeste 41 Oeste 0 -- -- 83
2018-01-23 11:00:00 11.3 23 Oeste 41 Oeste 0 -- -- 85
2018-01-23 10:00:00 9.5 14 Oeste 40 Oeste 0 -- -- 90
2018-01-23 09:00:00 9.7 20 Oeste 35 Oeste 0 -- -- 91
2018-01-23 08:00:00 8.9 21 Oeste 31 Oeste 0 -- -- 95
2018-01-23 07:00:00 8.2 15 Oeste 35 Noroeste 0 -- -- 91
2018-01-23 06:00:00 9.9 21 Oeste 37 Oeste 0 -- -- 91
2018-01-23 05:00:00 10 22 Oeste 38 Oeste 0 -- -- 88
2018-01-23 04:00:00 10.2 22 Oeste 41 Oeste 0 -- -- 87
2018-01-23 03:00:00 10 24 Oeste 36 Noroeste 0 -- -- 88
2018-01-23 02:00:00 9.4 22 Oeste 36 Oeste 0 -- -- 89
2018-01-23 01:00:00 9.9 23 Noroeste 40 Oeste 0 -- -- 88
2018-01-23 00:00:00 9.8 23 Oeste 43 Oeste 0 -- -- 87
2018-01-22 23:00:00 9.8 26 Oeste 38 Oeste 0 -- -- 86
2018-01-22 22:00:00 9.7 22 Oeste 37 Oeste 0 -- -- 85
2018-01-22 21:00:00 10.3 25 Oeste 38 Oeste 0 -- -- 86
2018-01-22 20:00:00 10.4 21 Oeste 40 Noroeste 0 -- -- 84
2018-01-22 19:00:00 11.7 20 Noroeste 37 Noroeste 0 -- -- 78
2018-01-22 18:00:00 12.4 19 Oeste 45 Oeste 0 -- -- 72
2018-01-22 17:00:00 13 32 Oeste 48 Oeste 0 -- -- 68
2018-01-22 16:00:00 13.5 32 Oeste 54 Oeste 0 -- -- 67
2018-01-22 15:00:00 13.4 30 Oeste 57 Oeste 0 -- -- 67
2018-01-22 14:00:00 13.1 34 Oeste 57 Oeste 0 -- -- 69
2018-01-22 13:00:00 12.7 37 Oeste 55 Oeste 0 -- -- 72
2018-01-22 12:00:00 11.6 29 Oeste 46 Oeste 0 -- -- 75
2018-01-22 11:00:00 10.3 26 Oeste 42 Oeste 0 -- -- 80
2018-01-22 10:00:00 9.6 23 Oeste 42 Oeste 0 -- -- 81
2018-01-22 09:00:00 9.3 22 Oeste 41 Oeste 0 -- -- 82
2018-01-22 08:00:00 9.3 24 Oeste 42 Noroeste 0 -- -- 83
2018-01-22 07:00:00 8.9 24 Oeste 39 Oeste 0 -- -- 85
2018-01-22 06:00:00 9.1 19 Oeste 38 Noroeste 0 -- -- 86
2018-01-22 05:00:00 9.6 18 Oeste 41 Noroeste 0 -- -- 83
2018-01-22 04:00:00 9.9 24 Noroeste 46 Oeste 0 -- -- 82
2018-01-22 03:00:00 9.9 24 Noroeste 36 Noroeste 0 -- -- 82
2018-01-22 02:00:00 9.7 23 Oeste 39 Noroeste 0 -- -- 84
2018-01-22 01:00:00 9.9 22 Oeste 35 Oeste 0 -- -- 85
2018-01-22 00:00:00 10.3 23 Oeste 34 Oeste 0 -- -- 84